sensor_id;sensor_type;location;lat;lon;timestamp;P1;durP1;ratioP1;P2;durP2;ratioP2
21297;SDS011;10808;48.010;11.326;2022-10-13T00:02:10;21.65;;;12.82;;
21297;SDS011;10808;48.010;11.326;2022-10-13T00:04:36;20.37;;;13.10;;
21297;SDS011;10808;48.010;11.326;2022-10-13T00:07:02;22.92;;;13.93;;
21297;SDS011;10808;48.010;11.326;2022-10-13T00:09:28;21.33;;;13.68;;
21297;SDS011;10808;48.010;11.326;2022-10-13T00:11:56;20.92;;;12.85;;
21297;SDS011;10808;48.010;11.326;2022-10-13T00:14:22;20.15;;;13.07;;
21297;SDS011;10808;48.010;11.326;2022-10-13T00:16:48;20.40;;;12.65;;
21297;SDS011;10808;48.010;11.326;2022-10-13T00:19:14;21.95;;;13.63;;
21297;SDS011;10808;48.010;11.326;2022-10-13T00:21:40;20.48;;;12.90;;
21297;SDS011;10808;48.010;11.326;2022-10-13T00:24:08;24.47;;;12.97;;
21297;SDS011;10808;48.010;11.326;2022-10-13T00:26:35;20.67;;;12.32;;
21297;SDS011;10808;48.010;11.326;2022-10-13T00:29:02;20.60;;;12.50;;
21297;SDS011;10808;48.010;11.326;2022-10-13T00:31:28;23.40;;;13.77;;
21297;SDS011;10808;48.010;11.326;2022-10-13T00:33:56;19.88;;;12.57;;
21297;SDS011;10808;48.010;11.326;2022-10-13T00:36:24;20.70;;;12.55;;
21297;SDS011;10808;48.010;11.326;2022-10-13T00:38:51;22.50;;;13.10;;
21297;SDS011;10808;48.010;11.326;2022-10-13T00:41:18;21.38;;;13.38;;
21297;SDS011;10808;48.010;11.326;2022-10-13T00:43:53;20.50;;;12.93;;
21297;SDS011;10808;48.010;11.326;2022-10-13T00:46:23;20.15;;;13.32;;
21297;SDS011;10808;48.010;11.326;2022-10-13T00:48:51;17.40;;;12.50;;
21297;SDS011;10808;48.010;11.326;2022-10-13T00:51:23;17.13;;;11.85;;
21297;SDS011;10808;48.010;11.326;2022-10-13T00:53:52;18.35;;;12.52;;
21297;SDS011;10808;48.010;11.326;2022-10-13T00:56:20;16.00;;;11.65;;
21297;SDS011;10808;48.010;11.326;2022-10-13T00:58:50;15.05;;;11.35;;
21297;SDS011;10808;48.010;11.326;2022-10-13T01:01:16;17.92;;;11.85;;
21297;SDS011;10808;48.010;11.326;2022-10-13T01:03:43;18.88;;;11.77;;
21297;SDS011;10808;48.010;11.326;2022-10-13T01:06:09;16.83;;;10.90;;
21297;SDS011;10808;48.010;11.326;2022-10-13T01:08:37;20.40;;;11.80;;
21297;SDS011;10808;48.010;11.326;2022-10-13T01:17:03;18.02;;;11.13;;
21297;SDS011;10808;48.010;11.326;2022-10-13T01:28:26;35.03;;;13.53;;
21297;SDS011;10808;48.010;11.326;2022-10-13T01:31:09;51.42;;;13.77;;
21297;SDS011;10808;48.010;11.326;2022-10-13T01:33:56;41.67;;;13.60;;
21297;SDS011;10808;48.010;11.326;2022-10-13T01:36:45;38.55;;;13.45;;
21297;SDS011;10808;48.010;11.326;2022-10-13T01:39:42;56.30;;;14.82;;
21297;SDS011;10808;48.010;11.326;2022-10-13T01:42:23;39.13;;;14.40;;
21297;SDS011;10808;48.010;11.326;2022-10-13T01:44:57;65.32;;;15.07;;
21297;SDS011;10808;48.010;11.326;2022-10-13T01:47:26;32.28;;;13.65;;
21297;SDS011;10808;48.010;11.326;2022-10-13T01:49:54;28.27;;;13.30;;
21297;SDS011;10808;48.010;11.326;2022-10-13T01:52:23;22.57;;;12.70;;
21297;SDS011;10808;48.010;11.326;2022-10-13T01:54:52;16.70;;;11.53;;
21297;SDS011;10808;48.010;11.326;2022-10-13T01:57:26;16.00;;;11.50;;
21297;SDS011;10808;48.010;11.326;2022-10-13T01:59:59;15.07;;;10.93;;
21297;SDS011;10808;48.010;11.326;2022-10-13T02:02:36;13.93;;;10.23;;
21297;SDS011;10808;48.010;11.326;2022-10-13T02:07:53;14.32;;;8.65;;
21297;SDS011;10808;48.010;11.326;2022-10-13T02:10:26;10.27;;;8.18;;
21297;SDS011;10808;48.010;11.326;2022-10-13T02:12:59;9.00;;;7.82;;
21297;SDS011;10808;48.010;11.326;2022-10-13T02:15:40;9.10;;;7.70;;
21297;SDS011;10808;48.010;11.326;2022-10-13T02:18:11;8.88;;;7.68;;
21297;SDS011;10808;48.010;11.326;2022-10-13T02:20:40;10.02;;;7.88;;
21297;SDS011;10808;48.010;11.326;2022-10-13T02:23:12;10.85;;;7.93;;
21297;SDS011;10808;48.010;11.326;2022-10-13T02:25:40;10.18;;;7.70;;
21297;SDS011;10808;48.010;11.326;2022-10-13T02:28:08;10.25;;;8.07;;
21297;SDS011;10808;48.010;11.326;2022-10-13T02:30:35;11.70;;;8.82;;
21297;SDS011;10808;48.010;11.326;2022-10-13T02:33:04;11.07;;;8.27;;
21297;SDS011;10808;48.010;11.326;2022-10-13T02:35:31;10.90;;;8.60;;
21297;SDS011;10808;48.010;11.326;2022-10-13T02:37:58;11.88;;;7.88;;
21297;SDS011;10808;48.010;11.326;2022-10-13T02:40:26;10.30;;;8.25;;
21297;SDS011;10808;48.010;11.326;2022-10-13T02:42:53;9.80;;;8.23;;
21297;SDS011;10808;48.010;11.326;2022-10-13T02:45:19;8.20;;;7.32;;
21297;SDS011;10808;48.010;11.326;2022-10-13T02:47:45;10.40;;;7.60;;
21297;SDS011;10808;48.010;11.326;2022-10-13T02:50:11;8.80;;;7.60;;
21297;SDS011;10808;48.010;11.326;2022-10-13T02:52:38;9.30;;;8.00;;
21297;SDS011;10808;48.010;11.326;2022-10-13T02:55:04;10.00;;;8.10;;
21297;SDS011;10808;48.010;11.326;2022-10-13T02:57:31;10.48;;;8.38;;
21297;SDS011;10808;48.010;11.326;2022-10-13T02:59:57;11.73;;;9.05;;
21297;SDS011;10808;48.010;11.326;2022-10-13T03:02:24;15.93;;;9.40;;
21297;SDS011;10808;48.010;11.326;2022-10-13T03:04:51;11.18;;;9.90;;
21297;SDS011;10808;48.010;11.326;2022-10-13T03:07:17;11.35;;;9.25;;
21297;SDS011;10808;48.010;11.326;2022-10-13T03:09:43;16.13;;;10.43;;
21297;SDS011;10808;48.010;11.326;2022-10-13T03:12:10;14.80;;;11.23;;
21297;SDS011;10808;48.010;11.326;2022-10-13T03:14:37;12.50;;;10.40;;
21297;SDS011;10808;48.010;11.326;2022-10-13T03:17:03;14.05;;;9.90;;
21297;SDS011;10808;48.010;11.326;2022-10-13T03:19:29;12.52;;;9.75;;
21297;SDS011;10808;48.010;11.326;2022-10-13T03:21:56;14.80;;;10.23;;
21297;SDS011;10808;48.010;11.326;2022-10-13T03:26:52;12.32;;;10.20;;
21297;SDS011;10808;48.010;11.326;2022-10-13T03:29:18;11.88;;;9.80;;
21297;SDS011;10808;48.010;11.326;2022-10-13T03:31:44;12.30;;;9.10;;
21297;SDS011;10808;48.010;11.326;2022-10-13T03:34:11;14.43;;;10.98;;
21297;SDS011;10808;48.010;11.326;2022-10-13T03:36:39;17.60;;;12.40;;
21297;SDS011;10808;48.010;11.326;2022-10-13T03:39:05;15.23;;;12.25;;
21297;SDS011;10808;48.010;11.326;2022-10-13T03:41:32;15.38;;;11.27;;
21297;SDS011;10808;48.010;11.326;2022-10-13T03:43:58;19.83;;;13.25;;
21297;SDS011;10808;48.010;11.326;2022-10-13T03:46:25;18.75;;;12.07;;
21297;SDS011;10808;48.010;11.326;2022-10-13T03:48:53;14.68;;;11.80;;
21297;SDS011;10808;48.010;11.326;2022-10-13T03:51:20;15.90;;;12.38;;
21297;SDS011;10808;48.010;11.326;2022-10-13T03:53:48;17.70;;;12.80;;
21297;SDS011;10808;48.010;11.326;2022-10-13T03:56:19;16.65;;;12.40;;
21297;SDS011;10808;48.010;11.326;2022-10-13T03:58:47;16.83;;;12.98;;
21297;SDS011;10808;48.010;11.326;2022-10-13T04:01:18;17.23;;;13.30;;
21297;SDS011;10808;48.010;11.326;2022-10-13T04:03:45;19.25;;;13.63;;
21297;SDS011;10808;48.010;11.326;2022-10-13T04:06:11;23.77;;;14.90;;
21297;SDS011;10808;48.010;11.326;2022-10-13T04:08:37;24.67;;;15.70;;
21297;SDS011;10808;48.010;11.326;2022-10-13T04:11:04;26.13;;;17.25;;
21297;SDS011;10808;48.010;11.326;2022-10-13T04:13:33;24.08;;;16.23;;
21297;SDS011;10808;48.010;11.326;2022-10-13T04:16:03;36.90;;;16.83;;
21297;SDS011;10808;48.010;11.326;2022-10-13T04:18:34;31.17;;;17.20;;
21297;SDS011;10808;48.010;11.326;2022-10-13T04:21:00;36.88;;;17.90;;
21297;SDS011;10808;48.010;11.326;2022-10-13T04:23:26;31.73;;;17.98;;
21297;SDS011;10808;48.010;11.326;2022-10-13T04:26:01;32.83;;;17.10;;
21297;SDS011;10808;48.010;11.326;2022-10-13T04:28:28;27.90;;;17.85;;
21297;SDS011;10808;48.010;11.326;2022-10-13T04:30:54;32.20;;;17.20;;
21297;SDS011;10808;48.010;11.326;2022-10-13T04:33:20;29.30;;;17.65;;
21297;SDS011;10808;48.010;11.326;2022-10-13T04:35:46;27.40;;;18.00;;
21297;SDS011;10808;48.010;11.326;2022-10-13T04:38:12;32.20;;;18.15;;
21297;SDS011;10808;48.010;11.326;2022-10-13T04:40:38;35.97;;;18.70;;
21297;SDS011;10808;48.010;11.326;2022-10-13T04:43:05;31.70;;;18.83;;
21297;SDS011;10808;48.010;11.326;2022-10-13T04:45:31;29.10;;;17.42;;
21297;SDS011;10808;48.010;11.326;2022-10-13T04:47:57;23.92;;;16.48;;
21297;SDS011;10808;48.010;11.326;2022-10-13T04:50:25;27.75;;;16.40;;
21297;SDS011;10808;48.010;11.326;2022-10-13T04:52:51;22.95;;;15.77;;
21297;SDS011;10808;48.010;11.326;2022-10-13T04:55:17;21.98;;;16.10;;
21297;SDS011;10808;48.010;11.326;2022-10-13T04:57:43;22.27;;;15.80;;
21297;SDS011;10808;48.010;11.326;2022-10-13T05:00:10;22.73;;;15.87;;
21297;SDS011;10808;48.010;11.326;2022-10-13T05:02:36;21.17;;;14.90;;
21297;SDS011;10808;48.010;11.326;2022-10-13T05:05:03;24.00;;;16.53;;
21297;SDS011;10808;48.010;11.326;2022-10-13T05:07:30;18.67;;;14.10;;
21297;SDS011;10808;48.010;11.326;2022-10-13T05:09:56;23.17;;;14.75;;
21297;SDS011;10808;48.010;11.326;2022-10-13T05:12:22;20.75;;;15.40;;
21297;SDS011;10808;48.010;11.326;2022-10-13T05:14:48;27.10;;;16.63;;
21297;SDS011;10808;48.010;11.326;2022-10-13T05:17:14;23.23;;;17.15;;
21297;SDS011;10808;48.010;11.326;2022-10-13T05:19:41;24.20;;;15.63;;
21297;SDS011;10808;48.010;11.326;2022-10-13T05:22:07;23.88;;;16.65;;
21297;SDS011;10808;48.010;11.326;2022-10-13T05:24:33;22.75;;;15.85;;
21297;SDS011;10808;48.010;11.326;2022-10-13T05:27:03;26.20;;;17.52;;
21297;SDS011;10808;48.010;11.326;2022-10-13T05:29:36;33.03;;;16.85;;
21297;SDS011;10808;48.010;11.326;2022-10-13T05:32:03;27.65;;;17.65;;
21297;SDS011;10808;48.010;11.326;2022-10-13T05:34:30;26.77;;;17.93;;
21297;SDS011;10808;48.010;11.326;2022-10-13T05:36:57;28.05;;;17.70;;
21297;SDS011;10808;48.010;11.326;2022-10-13T05:39:24;27.40;;;17.98;;
21297;SDS011;10808;48.010;11.326;2022-10-13T05:41:50;27.42;;;17.83;;
21297;SDS011;10808;48.010;11.326;2022-10-13T05:44:17;28.88;;;18.05;;
21297;SDS011;10808;48.010;11.326;2022-10-13T05:46:44;26.00;;;17.98;;
21297;SDS011;10808;48.010;11.326;2022-10-13T05:49:10;34.63;;;19.60;;
21297;SDS011;10808;48.010;11.326;2022-10-13T05:51:37;32.70;;;19.73;;
21297;SDS011;10808;48.010;11.326;2022-10-13T05:54:07;31.63;;;20.33;;
21297;SDS011;10808;48.010;11.326;2022-10-13T05:56:39;33.00;;;20.90;;
21297;SDS011;10808;48.010;11.326;2022-10-13T05:59:12;33.13;;;19.27;;
21297;SDS011;10808;48.010;11.326;2022-10-13T06:01:42;31.48;;;19.77;;
21297;SDS011;10808;48.010;11.326;2022-10-13T06:04:11;29.75;;;18.80;;
21297;SDS011;10808;48.010;11.326;2022-10-13T06:06:43;36.45;;;21.88;;
21297;SDS011;10808;48.010;11.326;2022-10-13T06:09:10;33.03;;;20.77;;
21297;SDS011;10808;48.010;11.326;2022-10-13T06:11:36;33.73;;;20.53;;
21297;SDS011;10808;48.010;11.326;2022-10-13T06:14:02;36.00;;;20.90;;
21297;SDS011;10808;48.010;11.326;2022-10-13T06:16:29;33.28;;;20.23;;
21297;SDS011;10808;48.010;11.326;2022-10-13T06:18:55;34.08;;;21.83;;
21297;SDS011;10808;48.010;11.326;2022-10-13T06:21:21;38.80;;;22.45;;
21297;SDS011;10808;48.010;11.326;2022-10-13T06:23:47;36.53;;;22.38;;
21297;SDS011;10808;48.010;11.326;2022-10-13T06:26:13;34.72;;;21.10;;
21297;SDS011;10808;48.010;11.326;2022-10-13T06:28:39;40.50;;;21.83;;
21297;SDS011;10808;48.010;11.326;2022-10-13T06:31:05;39.95;;;22.67;;
21297;SDS011;10808;48.010;11.326;2022-10-13T06:33:32;42.67;;;23.58;;
21297;SDS011;10808;48.010;11.326;2022-10-13T06:36:02;34.45;;;21.85;;
21297;SDS011;10808;48.010;11.326;2022-10-13T06:38:30;38.78;;;22.70;;
21297;SDS011;10808;48.010;11.326;2022-10-13T06:41:00;38.50;;;21.42;;
21297;SDS011;10808;48.010;11.326;2022-10-13T06:43:27;37.33;;;21.58;;
21297;SDS011;10808;48.010;11.326;2022-10-13T06:45:57;39.42;;;22.25;;
21297;SDS011;10808;48.010;11.326;2022-10-13T06:48:25;41.42;;;23.02;;
21297;SDS011;10808;48.010;11.326;2022-10-13T06:50:52;37.75;;;21.75;;
21297;SDS011;10808;48.010;11.326;2022-10-13T06:53:18;36.88;;;21.40;;
21297;SDS011;10808;48.010;11.326;2022-10-13T06:55:45;34.88;;;20.90;;
21297;SDS011;10808;48.010;11.326;2022-10-13T06:58:11;35.50;;;21.65;;
21297;SDS011;10808;48.010;11.326;2022-10-13T07:00:39;39.23;;;21.50;;
21297;SDS011;10808;48.010;11.326;2022-10-13T07:03:06;36.90;;;22.02;;
21297;SDS011;10808;48.010;11.326;2022-10-13T07:05:32;37.27;;;21.17;;
21297;SDS011;10808;48.010;11.326;2022-10-13T07:07:58;36.15;;;20.80;;
21297;SDS011;10808;48.010;11.326;2022-10-13T07:10:24;35.47;;;20.80;;
21297;SDS011;10808;48.010;11.326;2022-10-13T07:12:50;35.85;;;20.38;;
21297;SDS011;10808;48.010;11.326;2022-10-13T07:15:16;35.78;;;21.55;;
21297;SDS011;10808;48.010;11.326;2022-10-13T07:17:42;33.85;;;20.40;;
21297;SDS011;10808;48.010;11.326;2022-10-13T07:20:09;31.83;;;19.20;;
21297;SDS011;10808;48.010;11.326;2022-10-13T07:22:35;31.20;;;19.00;;
21297;SDS011;10808;48.010;11.326;2022-10-13T07:25:01;30.23;;;18.30;;
21297;SDS011;10808;48.010;11.326;2022-10-13T07:27:28;26.98;;;16.98;;
21297;SDS011;10808;48.010;11.326;2022-10-13T07:29:54;25.00;;;16.58;;
21297;SDS011;10808;48.010;11.326;2022-10-13T07:32:20;25.93;;;16.63;;
21297;SDS011;10808;48.010;11.326;2022-10-13T07:34:54;33.13;;;15.63;;
21297;SDS011;10808;48.010;11.326;2022-10-13T07:37:20;23.08;;;16.35;;
21297;SDS011;10808;48.010;11.326;2022-10-13T07:39:46;25.38;;;15.45;;
21297;SDS011;10808;48.010;11.326;2022-10-13T07:42:13;22.05;;;14.32;;
21297;SDS011;10808;48.010;11.326;2022-10-13T07:44:41;22.63;;;15.70;;
21297;SDS011;10808;48.010;11.326;2022-10-13T07:47:07;24.75;;;14.73;;
21297;SDS011;10808;48.010;11.326;2022-10-13T07:49:34;23.48;;;15.57;;
21297;SDS011;10808;48.010;11.326;2022-10-13T07:52:00;22.27;;;15.55;;
21297;SDS011;10808;48.010;11.326;2022-10-13T07:54:26;23.73;;;14.98;;
21297;SDS011;10808;48.010;11.326;2022-10-13T07:56:53;24.10;;;14.63;;
21297;SDS011;10808;48.010;11.326;2022-10-13T07:59:20;23.80;;;14.77;;
21297;SDS011;10808;48.010;11.326;2022-10-13T08:01:46;21.13;;;14.55;;
21297;SDS011;10808;48.010;11.326;2022-10-13T08:04:13;22.38;;;14.30;;
21297;SDS011;10808;48.010;11.326;2022-10-13T08:06:39;24.60;;;15.13;;
21297;SDS011;10808;48.010;11.326;2022-10-13T08:09:07;22.60;;;14.10;;
21297;SDS011;10808;48.010;11.326;2022-10-13T08:11:33;23.58;;;14.13;;
21297;SDS011;10808;48.010;11.326;2022-10-13T08:14:00;21.48;;;13.82;;
21297;SDS011;10808;48.010;11.326;2022-10-13T08:16:29;18.33;;;12.33;;
21297;SDS011;10808;48.010;11.326;2022-10-13T08:18:57;21.08;;;12.75;;
21297;SDS011;10808;48.010;11.326;2022-10-13T08:21:23;20.73;;;12.88;;
21297;SDS011;10808;48.010;11.326;2022-10-13T08:23:52;21.17;;;12.80;;
21297;SDS011;10808;48.010;11.326;2022-10-13T08:26:21;20.92;;;12.60;;
21297;SDS011;10808;48.010;11.326;2022-10-13T08:28:50;16.35;;;12.07;;
21297;SDS011;10808;48.010;11.326;2022-10-13T08:31:17;20.45;;;12.10;;
21297;SDS011;10808;48.010;11.326;2022-10-13T08:33:44;20.58;;;12.65;;
21297;SDS011;10808;48.010;11.326;2022-10-13T08:36:19;18.67;;;12.70;;
21297;SDS011;10808;48.010;11.326;2022-10-13T08:38:45;21.30;;;13.27;;
21297;SDS011;10808;48.010;11.326;2022-10-13T08:41:24;18.83;;;12.13;;
21297;SDS011;10808;48.010;11.326;2022-10-13T08:43:55;21.90;;;12.97;;
21297;SDS011;10808;48.010;11.326;2022-10-13T08:46:27;21.33;;;12.27;;
21297;SDS011;10808;48.010;11.326;2022-10-13T08:49:02;23.08;;;12.15;;
21297;SDS011;10808;48.010;11.326;2022-10-13T08:51:30;23.08;;;12.90;;
21297;SDS011;10808;48.010;11.326;2022-10-13T08:53:56;21.38;;;12.63;;
21297;SDS011;10808;48.010;11.326;2022-10-13T08:56:24;21.38;;;12.95;;
21297;SDS011;10808;48.010;11.326;2022-10-13T08:58:54;20.83;;;12.70;;
21297;SDS011;10808;48.010;11.326;2022-10-13T09:01:31;22.33;;;12.95;;
21297;SDS011;10808;48.010;11.326;2022-10-13T09:06:52;23.58;;;12.48;;
21297;SDS011;10808;48.010;11.326;2022-10-13T09:09:19;18.20;;;12.25;;
21297;SDS011;10808;48.010;11.326;2022-10-13T09:11:47;22.70;;;13.63;;
21297;SDS011;10808;48.010;11.326;2022-10-13T09:14:22;21.25;;;13.13;;
21297;SDS011;10808;48.010;11.326;2022-10-13T09:16:51;25.33;;;12.30;;
21297;SDS011;10808;48.010;11.326;2022-10-13T09:21:55;24.30;;;13.27;;
21297;SDS011;10808;48.010;11.326;2022-10-13T09:24:37;22.27;;;12.75;;
21297;SDS011;10808;48.010;11.326;2022-10-13T09:27:13;23.05;;;13.23;;
21297;SDS011;10808;48.010;11.326;2022-10-13T09:29:44;22.00;;;12.88;;
21297;SDS011;10808;48.010;11.326;2022-10-13T09:32:17;20.60;;;13.63;;
21297;SDS011;10808;48.010;11.326;2022-10-13T09:34:50;25.50;;;13.40;;
21297;SDS011;10808;48.010;11.326;2022-10-13T09:37:18;22.70;;;12.98;;
21297;SDS011;10808;48.010;11.326;2022-10-13T09:39:58;21.05;;;12.80;;
21297;SDS011;10808;48.010;11.326;2022-10-13T09:42:49;20.43;;;12.87;;
21297;SDS011;10808;48.010;11.326;2022-10-13T09:45:18;18.90;;;12.07;;
21297;SDS011;10808;48.010;11.326;2022-10-13T09:47:48;60.00;;;13.73;;
21297;SDS011;10808;48.010;11.326;2022-10-13T09:50:18;31.58;;;11.95;;
21297;SDS011;10808;48.010;11.326;2022-10-13T09:52:47;28.40;;;12.35;;
21297;SDS011;10808;48.010;11.326;2022-10-13T09:55:31;71.20;;;13.67;;
21297;SDS011;10808;48.010;11.326;2022-10-13T09:58:04;424.25;;;45.45;;
21297;SDS011;10808;48.010;11.326;2022-10-13T10:00:35;20.27;;;11.33;;
21297;SDS011;10808;48.010;11.326;2022-10-13T10:03:09;41.00;;;12.50;;
21297;SDS011;10808;48.010;11.326;2022-10-13T10:05:45;45.27;;;12.93;;
21297;SDS011;10808;48.010;11.326;2022-10-13T10:08:35;19.58;;;10.10;;
21297;SDS011;10808;48.010;11.326;2022-10-13T10:11:19;16.30;;;9.65;;
21297;SDS011;10808;48.010;11.326;2022-10-13T10:13:53;71.00;;;12.00;;
21297;SDS011;10808;48.010;11.326;2022-10-13T10:16:30;22.03;;;9.63;;
21297;SDS011;10808;48.010;11.326;2022-10-13T10:19:14;22.83;;;9.55;;
21297;SDS011;10808;48.010;11.326;2022-10-13T10:22:14;21.20;;;9.68;;
21297;SDS011;10808;48.010;11.326;2022-10-13T10:24:52;30.00;;;11.05;;
21297;SDS011;10808;48.010;11.326;2022-10-13T10:27:37;20.25;;;10.93;;
21297;SDS011;10808;48.010;11.326;2022-10-13T10:30:13;20.83;;;11.35;;
21297;SDS011;10808;48.010;11.326;2022-10-13T10:32:59;18.95;;;10.57;;
21297;SDS011;10808;48.010;11.326;2022-10-13T10:35:57;16.27;;;10.20;;
21297;SDS011;10808;48.010;11.326;2022-10-13T10:38:34;16.67;;;9.85;;
21297;SDS011;10808;48.010;11.326;2022-10-13T10:44:42;14.68;;;10.48;;
21297;SDS011;10808;48.010;11.326;2022-10-13T10:47:35;23.95;;;10.68;;
21297;SDS011;10808;48.010;11.326;2022-10-13T10:50:06;16.70;;;9.48;;
21297;SDS011;10808;48.010;11.326;2022-10-13T10:55:14;18.80;;;10.25;;
21297;SDS011;10808;48.010;11.326;2022-10-13T10:57:59;15.65;;;9.98;;
21297;SDS011;10808;48.010;11.326;2022-10-13T11:00:57;13.98;;;9.85;;
21297;SDS011;10808;48.010;11.326;2022-10-13T11:06:35;19.45;;;9.57;;
21297;SDS011;10808;48.010;11.326;2022-10-13T11:09:02;18.70;;;9.93;;
21297;SDS011;10808;48.010;11.326;2022-10-13T11:11:31;19.90;;;9.85;;
21297;SDS011;10808;48.010;11.326;2022-10-13T11:16:32;15.70;;;9.47;;
21297;SDS011;10808;48.010;11.326;2022-10-13T11:27:23;15.13;;;8.87;;
21297;SDS011;10808;48.010;11.326;2022-10-13T11:30:03;14.50;;;9.27;;
21297;SDS011;10808;48.010;11.326;2022-10-13T11:37:32;15.10;;;9.45;;
21297;SDS011;10808;48.010;11.326;2022-10-13T11:40:27;14.70;;;9.17;;
21297;SDS011;10808;48.010;11.326;2022-10-13T11:46:08;15.38;;;8.43;;
21297;SDS011;10808;48.010;11.326;2022-10-13T11:54:42;15.70;;;9.70;;
21297;SDS011;10808;48.010;11.326;2022-10-13T11:57:22;16.10;;;9.13;;
21297;SDS011;10808;48.010;11.326;2022-10-13T11:59:51;12.00;;;8.50;;
21297;SDS011;10808;48.010;11.326;2022-10-13T12:02:21;16.33;;;9.30;;
21297;SDS011;10808;48.010;11.326;2022-10-13T12:07:46;19.13;;;9.55;;
21297;SDS011;10808;48.010;11.326;2022-10-13T12:10:19;15.95;;;8.77;;
21297;SDS011;10808;48.010;11.326;2022-10-13T12:13:04;15.98;;;8.77;;
21297;SDS011;10808;48.010;11.326;2022-10-13T12:15:32;15.25;;;9.40;;
21297;SDS011;10808;48.010;11.326;2022-10-13T12:18:01;15.60;;;8.93;;
21297;SDS011;10808;48.010;11.326;2022-10-13T12:20:43;15.57;;;8.60;;
21297;SDS011;10808;48.010;11.326;2022-10-13T12:23:17;16.38;;;8.73;;
21297;SDS011;10808;48.010;11.326;2022-10-13T12:25:45;14.75;;;8.77;;
21297;SDS011;10808;48.010;11.326;2022-10-13T12:28:16;16.00;;;9.40;;
21297;SDS011;10808;48.010;11.326;2022-10-13T12:30:50;17.67;;;8.68;;
21297;SDS011;10808;48.010;11.326;2022-10-13T12:33:33;14.70;;;8.60;;
21297;SDS011;10808;48.010;11.326;2022-10-13T12:36:23;13.93;;;8.40;;
21297;SDS011;10808;48.010;11.326;2022-10-13T12:38:50;14.95;;;8.57;;
21297;SDS011;10808;48.010;11.326;2022-10-13T12:41:22;18.17;;;8.70;;
21297;SDS011;10808;48.010;11.326;2022-10-13T12:43:51;15.50;;;9.32;;
21297;SDS011;10808;48.010;11.326;2022-10-13T12:49:33;19.50;;;8.60;;
21297;SDS011;10808;48.010;11.326;2022-10-13T12:52:04;14.37;;;8.33;;
21297;SDS011;10808;48.010;11.326;2022-10-13T12:54:35;18.75;;;8.90;;
21297;SDS011;10808;48.010;11.326;2022-10-13T12:57:17;12.93;;;7.75;;
21297;SDS011;10808;48.010;11.326;2022-10-13T12:59:45;12.57;;;8.17;;
21297;SDS011;10808;48.010;11.326;2022-10-13T13:02:25;14.65;;;8.77;;
21297;SDS011;10808;48.010;11.326;2022-10-13T13:04:54;18.67;;;9.05;;
21297;SDS011;10808;48.010;11.326;2022-10-13T13:07:27;13.15;;;8.75;;
21297;SDS011;10808;48.010;11.326;2022-10-13T13:10:01;12.48;;;8.38;;
21297;SDS011;10808;48.010;11.326;2022-10-13T13:12:38;27.58;;;9.52;;
21297;SDS011;10808;48.010;11.326;2022-10-13T13:17:52;14.53;;;9.20;;
21297;SDS011;10808;48.010;11.326;2022-10-13T13:20:32;16.63;;;9.15;;
21297;SDS011;10808;48.010;11.326;2022-10-13T13:22:59;16.03;;;9.13;;
21297;SDS011;10808;48.010;11.326;2022-10-13T13:25:25;16.38;;;8.50;;
21297;SDS011;10808;48.010;11.326;2022-10-13T13:27:52;12.93;;;8.27;;
21297;SDS011;10808;48.010;11.326;2022-10-13T13:30:19;16.23;;;8.88;;
21297;SDS011;10808;48.010;11.326;2022-10-13T13:32:46;12.77;;;7.70;;
21297;SDS011;10808;48.010;11.326;2022-10-13T13:35:13;12.73;;;7.90;;
21297;SDS011;10808;48.010;11.326;2022-10-13T13:37:46;15.80;;;8.00;;
21297;SDS011;10808;48.010;11.326;2022-10-13T13:40:18;16.20;;;8.55;;
21297;SDS011;10808;48.010;11.326;2022-10-13T13:42:46;12.85;;;8.75;;
21297;SDS011;10808;48.010;11.326;2022-10-13T13:45:12;13.17;;;8.40;;
21297;SDS011;10808;48.010;11.326;2022-10-13T13:47:40;12.18;;;7.90;;
21297;SDS011;10808;48.010;11.326;2022-10-13T13:50:16;10.40;;;8.30;;
21297;SDS011;10808;48.010;11.326;2022-10-13T13:52:46;14.35;;;8.73;;
21297;SDS011;10808;48.010;11.326;2022-10-13T13:55:12;13.73;;;8.10;;
21297;SDS011;10808;48.010;11.326;2022-10-13T13:57:39;14.50;;;8.50;;
21297;SDS011;10808;48.010;11.326;2022-10-13T14:00:06;15.32;;;8.23;;
21297;SDS011;10808;48.010;11.326;2022-10-13T14:02:34;14.50;;;8.38;;
21297;SDS011;10808;48.010;11.326;2022-10-13T14:05:00;13.70;;;8.63;;
21297;SDS011;10808;48.010;11.326;2022-10-13T14:07:26;13.57;;;8.40;;
21297;SDS011;10808;48.010;11.326;2022-10-13T14:09:52;19.60;;;8.90;;
21297;SDS011;10808;48.010;11.326;2022-10-13T14:12:18;16.33;;;8.32;;
21297;SDS011;10808;48.010;11.326;2022-10-13T14:14:44;12.68;;;8.55;;
21297;SDS011;10808;48.010;11.326;2022-10-13T14:17:10;15.23;;;8.07;;
21297;SDS011;10808;48.010;11.326;2022-10-13T14:19:38;13.63;;;8.05;;
21297;SDS011;10808;48.010;11.326;2022-10-13T14:22:08;16.70;;;8.85;;
21297;SDS011;10808;48.010;11.326;2022-10-13T14:24:34;23.33;;;8.10;;
21297;SDS011;10808;48.010;11.326;2022-10-13T14:27:00;15.80;;;7.73;;
21297;SDS011;10808;48.010;11.326;2022-10-13T14:29:26;12.55;;;8.40;;
21297;SDS011;10808;48.010;11.326;2022-10-13T14:31:52;16.67;;;9.20;;
21297;SDS011;10808;48.010;11.326;2022-10-13T14:34:18;15.82;;;9.07;;
21297;SDS011;10808;48.010;11.326;2022-10-13T14:36:45;15.07;;;8.30;;
21297;SDS011;10808;48.010;11.326;2022-10-13T14:39:12;14.90;;;8.35;;
21297;SDS011;10808;48.010;11.326;2022-10-13T14:41:38;15.52;;;10.82;;
21297;SDS011;10808;48.010;11.326;2022-10-13T14:44:04;21.88;;;13.15;;
21297;SDS011;10808;48.010;11.326;2022-10-13T14:46:30;17.65;;;13.07;;
21297;SDS011;10808;48.010;11.326;2022-10-13T14:48:56;17.00;;;11.85;;
21297;SDS011;10808;48.010;11.326;2022-10-13T14:51:23;21.55;;;14.23;;
21297;SDS011;10808;48.010;11.326;2022-10-13T14:53:49;16.38;;;10.45;;
21297;SDS011;10808;48.010;11.326;2022-10-13T14:56:17;11.90;;;8.50;;
21297;SDS011;10808;48.010;11.326;2022-10-13T14:58:49;13.23;;;8.55;;
21297;SDS011;10808;48.010;11.326;2022-10-13T15:01:17;14.88;;;7.68;;
21297;SDS011;10808;48.010;11.326;2022-10-13T15:03:43;10.93;;;7.30;;
21297;SDS011;10808;48.010;11.326;2022-10-13T15:06:13;15.27;;;7.82;;
21297;SDS011;10808;48.010;11.326;2022-10-13T15:08:41;15.30;;;8.00;;
21297;SDS011;10808;48.010;11.326;2022-10-13T15:11:08;15.07;;;8.23;;
21297;SDS011;10808;48.010;11.326;2022-10-13T15:13:35;12.63;;;8.00;;
21297;SDS011;10808;48.010;11.326;2022-10-13T15:16:01;14.73;;;7.57;;
21297;SDS011;10808;48.010;11.326;2022-10-13T15:18:29;12.70;;;7.05;;
21297;SDS011;10808;48.010;11.326;2022-10-13T15:20:56;11.32;;;7.07;;
21297;SDS011;10808;48.010;11.326;2022-10-13T15:23:22;13.60;;;7.43;;
21297;SDS011;10808;48.010;11.326;2022-10-13T15:25:52;11.38;;;7.40;;
21297;SDS011;10808;48.010;11.326;2022-10-13T15:28:27;12.90;;;7.43;;
21297;SDS011;10808;48.010;11.326;2022-10-13T15:30:55;11.17;;;6.97;;
21297;SDS011;10808;48.010;11.326;2022-10-13T15:33:21;12.70;;;7.25;;
21297;SDS011;10808;48.010;11.326;2022-10-13T15:35:48;65.18;;;22.45;;
21297;SDS011;10808;48.010;11.326;2022-10-13T15:38:15;133.52;;;21.10;;